Westerlo, NY (12193)

5:28 AM EST on December 08, 2016 (GMT -0500)
Remley Lane - 1760' | | Change Station

Elev 1760 ft 42.58 °N, 74.07 °W | Updated 3 minutes ago

Fog
Fog
27.6 °F
Feels Like 28 °F
N
0.0
Wind Variable Wind from NW
Gusts 4.0 mph

Today
High -- | Low -- °F
--% Chance of Precip.
Yesterday
High -- | Low -- °F
Precip. -- in
Pressure 29.95 in
Visibility 0.2 miles
Clouds
Windchill 28 °F
Dew Point 25 °F
Humidity 91%
Rainfall 0.00 in
Snow Depth Not available.
7:13 AM 4:22 PM
First Quarter, 62% visible
SPECI KALB 080958Z 18003KT 1/4SM R01/2000V3000FT FG VV002 01/01 A2995 RMK AO2 T00110006
Pressure 29.95 in
Visibility 0.2 miles
Clouds
Windchill 28 °F
Dew Point 25 °F
Humidity 91%
Rainfall 0.00 in
Snow Depth Not available.
7:13 AM 4:22 PM
First Quarter, 62% visible
SPECI KALB 080958Z 18003KT 1/4SM R01/2000V3000FT FG VV002 01/01 A2995 RMK AO2 T00110006

10-Day Weather Forecast

Almanac

Astronomy

Dec. 08, 2016 Rise Set
Actual Time
Civil Twilight
Nautical Twilight
Astronomical Twilight
Moon
Length of Visible Light
Length of Day
Tomorrow will be .
, % of the Moon is Illuminated

Today's Extremes

State Highs State Lows

Community

WunderPhotos

Upload Photos

1,956,261 photos uploaded!

WunderBlog® & News

Nearby

Air Quality

  Air Quality AQ Index Pollutant
Not available.

Snow Depth

Station Depth Elevation

Earthquake Activity

City Distance Mag. Time & Date
Minimum magnitude displayed is 2.5.

Coastal Water Temperatures

Place Temperature

Stations

Nearby Weather Stations

Station Location Temp. Windchill Dew Point Humidity Wind Precip. Elev Updated Type
                   

Watches & Warnings

There are currently no watches in effect.